Time;durP1;ratioP1;P1;durP2;ratioP2;P2;SDS_P1;SDS_P2;PMS_P1;PMS_P2;Temp;Humidity;BMP_temperature;BMP_pressure;BME280_temperature;BME280_humidity;BME280_pressure;Samples;Min_cycle;Max_cycle;Signal;HPM_P1;HPM_P2
2022/10/23 00:01:20;;;;;;;;;;;;;;;-142.75;100.00;76914.78;5064852;28;20046;-66
2022/10/23 00:03:46;;;;;;;;;;;;;;;-142.75;100.00;76932.50;5094770;22;19932;-65
2022/10/23 00:06:12;;;;;;;;;;;;;;;-142.75;100.00;76918.72;5077872;28;20298;-67
2022/10/23 00:08:37;;;;;;;;;;;;;;;-142.75;100.00;76916.75;5076416;28;19932;-66
2022/10/23 00:11:07;;;;;;;;;;;;;;;-142.75;100.00;76920.69;5080406;28;19924;-67
2022/10/23 00:13:32;;;;;;;;;;;;;;;-142.75;100.00;76928.56;5071285;28;19948;-65
2022/10/23 00:15:57;;;;;;;;;;;;;;;-142.75;100.00;76932.50;5056182;28;20419;-66
2022/10/23 00:18:22;;;;;;;;;;;;;;;-142.75;100.00;76924.63;5056087;28;20399;-66
2022/10/23 00:20:47;;;;;;;;;;;;;;;-142.75;100.00;76934.47;5063827;28;19922;-66
2022/10/23 00:23:13;;;;;;;;;;;;;;;-142.75;100.00;76930.53;5056072;28;19935;-66
2022/10/23 00:25:38;;;;;;;;;;;;;;;-142.75;100.00;76936.44;5055851;28;20344;-67
2022/10/23 00:28:03;;;;;;;;;;;;;;;-142.75;100.00;76944.31;5054777;28;19921;-66
2022/10/23 00:30:28;;;;;;;;;;;;;;;-142.75;100.00;76948.25;5057128;28;19917;-67
2022/10/23 00:32:53;;;;;;;;;;;;;;;-142.75;100.00;76940.38;5055180;28;19917;-66
2022/10/23 00:35:19;;;;;;;;;;;;;;;-142.75;100.00;76936.44;5055597;28;19924;-67
2022/10/23 00:37:44;;;;;;;;;;;;;;;-142.75;100.00;76948.25;5055946;28;19921;-66
2022/10/23 00:40:09;;;;;;;;;;;;;;;-142.75;100.00;76942.34;5059867;28;19920;-66
2022/10/23 00:42:35;;;;;;;;;;;;;;;-142.75;100.00;76956.13;5050222;28;20272;-65
2022/10/23 00:45:09;;;;;;;;;;;;;;;-142.75;100.00;76952.19;5061315;28;19920;-65
2022/10/23 00:47:34;;;;;;;;;;;;;;;-142.75;100.00;76948.25;5060994;28;19921;-65
2022/10/23 00:50:00;;;;;;;;;;;;;;;-142.75;100.00;76944.31;5060635;28;20298;-65
2022/10/23 00:52:26;;;;;;;;;;;;;;;-142.75;100.00;76940.38;5063151;28;19920;-66
2022/10/23 00:54:51;;;;;;;;;;;;;;;-142.75;100.00;76944.31;5058926;28;20390;-65
2022/10/23 00:57:16;;;;;;;;;;;;;;;-142.75;100.00;76942.34;5051228;28;19917;-69
2022/10/23 00:59:41;;;;;;;;;;;;;;;-142.75;100.00;76942.34;5056569;28;19916;-65
2022/10/23 01:02:07;;;;;;;;;;;;;;;-142.75;100.00;76948.25;5060644;28;19923;-66
2022/10/23 01:04:32;;;;;;;;;;;;;;;-142.75;100.00;76946.28;5067990;28;19939;-66
2022/10/23 01:07:21;;;;;;;;;;;;;;;-142.75;100.00;76952.19;5070699;28;20290;-66
2022/10/23 01:09:52;;;;;;;;;;;;;;;-142.75;100.00;76956.13;5060097;28;19982;-66
2022/10/23 01:12:23;;;;;;;;;;;;;;;-142.75;100.00;76950.22;5070858;28;19916;-66
2022/10/23 01:15:02;;;;;;;;;;;;;;;-142.75;100.00;76958.09;5071667;28;20014;-66
2022/10/23 01:17:36;;;;;;;;;;;;;;;-142.75;100.00;76952.19;5070418;28;19916;-66
2022/10/23 01:20:11;;;;;;;;;;;;;;;-142.75;100.00;76960.06;5070827;28;19924;-66
2022/10/23 01:22:45;;;;;;;;;;;;;;;-142.75;100.00;76964.00;5070811;28;20274;-67
2022/10/23 01:25:29;;;;;;;;;;;;;;;-142.75;100.00;76960.06;5070971;28;20011;-66
2022/10/23 01:28:07;;;;;;;;;;;;;;;-142.75;100.00;76977.78;5052456;28;19959;-66
2022/10/23 01:30:35;;;;;;;;;;;;;;;-142.75;100.00;76975.81;5070624;28;20030;-66
2022/10/23 01:33:04;;;;;;;;;;;;;;;-142.75;100.00;76979.75;5070460;28;19954;-66
2022/10/23 01:35:39;;;;;;;;;;;;;;;-142.75;100.00;76977.78;5070462;28;19916;-66
2022/10/23 01:38:07;;;;;;;;;;;;;;;-142.75;100.00;76979.75;5070199;28;19921;-65
2022/10/23 01:40:41;;;;;;;;;;;;;;;-142.75;100.00;76977.78;5070460;28;19916;-65
2022/10/23 01:43:11;;;;;;;;;;;;;;;-142.75;100.00;76975.81;5050461;28;19925;-66
2022/10/23 01:45:39;;;;;;;;;;;;;;;-142.75;100.00;76967.94;5051296;28;20303;-66
2022/10/23 01:48:07;;;;;;;;;;;;;;;-142.75;100.00;76967.94;5050100;28;19994;-66
2022/10/23 01:50:33;;;;;;;;;;;;;;;-142.75;100.00;76964.00;5050425;28;20279;-66
2022/10/23 01:52:58;;;;;;;;;;;;;;;-142.75;100.00;76962.03;5050142;28;19924;-66
2022/10/23 01:55:24;;;;;;;;;;;;;;;-142.75;100.00;76965.97;5050375;28;19920;-66
2022/10/23 01:57:50;;;;;;;;;;;;;;;-142.75;100.00;76964.00;5050014;28;19916;-66
2022/10/23 02:00:19;;;;;;;;;;;;;;;-142.75;100.00;76964.00;5032496;28;19939;-66
2022/10/23 02:02:45;;;;;;;;;;;;;;;-142.75;100.00;76967.94;5049997;28;19917;-66
2022/10/23 02:05:10;;;;;;;;;;;;;;;-142.75;100.00;76962.03;5050281;28;19971;-66
2022/10/23 02:07:36;;;;;;;;;;;;;;;-142.75;100.00;76956.13;5049685;28;19924;-66
2022/10/23 02:10:03;;;;;;;;;;;;;;;-142.75;100.00;76962.03;5050040;28;19931;-66
2022/10/23 02:12:47;;;;;;;;;;;;;;;-142.75;100.00;76960.06;5050118;28;20317;-65
2022/10/23 02:15:18;;;;;;;;;;;;;;;-142.75;100.00;76971.88;5070196;28;19916;-65
2022/10/23 02:18:01;;;;;;;;;;;;;;;-142.75;100.00;76965.97;5069749;28;20310;-66
2022/10/23 02:20:28;;;;;;;;;;;;;;;-142.75;100.00;76967.94;5069978;28;20007;-66
2022/10/23 02:23:12;;;;;;;;;;;;;;;-142.75;100.00;76967.94;5069229;28;19978;-65
2022/10/23 02:25:43;;;;;;;;;;;;;;;-142.75;100.00;76991.56;5069667;28;19955;-66
2022/10/23 02:28:12;;;;;;;;;;;;;;;-142.75;100.00;76979.75;5069450;28;19925;-66
2022/10/23 02:30:40;;;;;;;;;;;;;;;-142.75;100.00;76973.84;5069627;28;19920;-66
2022/10/23 02:33:07;;;;;;;;;;;;;;;-142.75;100.00;76971.88;5069521;28;19924;-65
2022/10/23 02:35:32;;;;;;;;;;;;;;;-142.75;100.00;76973.84;5069820;28;19916;-65
2022/10/23 02:37:58;;;;;;;;;;;;;;;-142.75;100.00;76971.88;5069415;28;19923;-66
2022/10/23 02:40:27;;;;;;;;;;;;;;;-142.75;100.00;76977.78;5069459;28;19952;-66
2022/10/23 02:43:00;;;;;;;;;;;;;;;-142.75;100.00;76967.94;5069666;28;19916;-66
2022/10/23 02:45:33;;;;;;;;;;;;;;;-142.75;100.00;76965.97;5070210;28;19977;-66
2022/10/23 02:48:07;;;;;;;;;;;;;;;-142.75;100.00;76964.00;5069253;28;20003;-66
2022/10/23 02:51:06;;;;;;;;;;;;;;;-142.75;100.00;76962.03;5069571;28;19920;-66
2022/10/23 02:53:49;;;;;;;;;;;;;;;-142.75;100.00;76950.22;5025187;28;20293;-65
2022/10/23 02:56:41;;;;;;;;;;;;;;;-142.75;100.00;76944.31;5051481;28;19921;-66
2022/10/23 02:59:13;;;;;;;;;;;;;;;-142.75;100.00;76928.56;5038091;28;19963;-66
2022/10/23 03:01:46;;;;;;;;;;;;;;;-142.75;100.00;76912.81;5069197;28;19923;-66
2022/10/23 03:04:12;;;;;;;;;;;;;;;-142.75;100.00;76906.91;5069167;28;19916;-66
2022/10/23 03:06:38;;;;;;;;;;;;;;;-142.75;100.00;76912.81;5069349;28;20019;-66
2022/10/23 03:09:05;;;;;;;;;;;;;;;-142.75;100.00;76902.97;5069545;28;20465;-66
2022/10/23 03:11:30;;;;;;;;;;;;;;;-142.75;100.00;76904.94;5069282;28;19927;-66
2022/10/23 03:13:55;;;;;;;;;;;;;;;-142.75;100.00;76904.94;5069303;28;19916;-66
2022/10/23 03:16:21;;;;;;;;;;;;;;;-142.75;100.00;76902.97;5070037;28;19916;-66
2022/10/23 03:18:46;;;;;;;;;;;;;;;-142.75;100.00;76908.88;5069052;28;19924;-66
2022/10/23 03:21:11;;;;;;;;;;;;;;;-142.75;100.00;76908.88;5069228;28;19938;-65
2022/10/23 03:23:36;;;;;;;;;;;;;;;-142.75;100.00;76901.00;5069230;28;20402;-66
2022/10/23 03:26:01;;;;;;;;;;;;;;;-142.75;100.00;76906.91;5051334;28;19961;-66
2022/10/23 03:28:27;;;;;;;;;;;;;;;-142.75;100.00;76897.06;5068860;28;19924;-66
2022/10/23 03:30:52;;;;;;;;;;;;;;;-142.75;100.00;76901.00;5069042;28;19920;-66
2022/10/23 03:33:17;;;;;;;;;;;;;;;-142.75;100.00;76895.09;5069489;28;19938;-66
2022/10/23 03:35:42;;;;;;;;;;;;;;;-142.75;100.00;76885.25;5073109;28;19970;-65
2022/10/23 03:38:07;;;;;;;;;;;;;;;-142.75;100.00;76877.38;5072653;28;19923;-66
2022/10/23 03:40:33;;;;;;;;;;;;;;;-142.75;100.00;76875.41;5072905;28;19928;-66
2022/10/23 03:42:58;;;;;;;;;;;;;;;-142.75;100.00;76867.53;5052915;28;19916;-66
2022/10/23 03:45:23;;;;;;;;;;;;;;;-142.75;100.00;76871.47;5053525;28;19917;-66
2022/10/23 03:47:50;;;;;;;;;;;;;;;-142.75;100.00;76871.47;5052450;28;20348;-66
2022/10/23 03:50:16;;;;;;;;;;;;;;;-142.75;100.00;76865.56;5052641;28;20305;-66
2022/10/23 03:52:41;;;;;;;;;;;;;;;-142.75;100.00;76865.56;5052674;28;19971;-66
2022/10/23 03:55:07;;;;;;;;;;;;;;;-142.75;100.00;76867.53;5052704;28;19917;-66
2022/10/23 03:57:32;;;;;;;;;;;;;;;-142.75;100.00;76863.59;5052147;28;19944;-66
2022/10/23 03:59:58;;;;;;;;;;;;;;;-142.75;100.00;76861.63;5052621;28;19917;-66
2022/10/23 04:02:23;;;;;;;;;;;;;;;-142.75;100.00;76873.44;5034525;28;19916;-66
2022/10/23 04:04:48;;;;;;;;;;;;;;;-142.75;100.00;76885.25;5052392;28;19916;-66
2022/10/23 04:07:14;;;;;;;;;;;;;;;-142.75;100.00;76881.31;5052044;28;19920;-66
2022/10/23 04:09:39;;;;;;;;;;;;;;;-142.75;100.00;76875.41;5052422;28;19920;-66
2022/10/23 04:12:04;;;;;;;;;;;;;;;-142.75;100.00;76869.50;5052417;28;20011;-66
2022/10/23 04:14:29;;;;;;;;;;;;;;;-142.75;100.00;76867.53;5034283;28;19970;-66
2022/10/23 04:16:54;;;;;;;;;;;;;;;-142.75;100.00;76865.56;5052552;28;20168;-66
2022/10/23 04:19:20;;;;;;;;;;;;;;;-142.75;100.00;76851.78;5052496;28;19940;-66
2022/10/23 04:21:45;;;;;;;;;;;;;;;-142.75;100.00;76851.78;5052321;28;20305;-66
2022/10/23 04:24:10;;;;;;;;;;;;;;;-142.75;100.00;76845.88;5052101;28;19971;-66
2022/10/23 04:26:35;;;;;;;;;;;;;;;-142.75;100.00;76845.88;5051749;28;19933;-66
2022/10/23 04:29:03;;;;;;;;;;;;;;;-142.75;100.00;76847.84;5051762;28;19917;-66
2022/10/23 04:31:28;;;;;;;;;;;;;;;-142.75;100.00;76867.53;5051963;28;19975;-66
2022/10/23 04:33:53;;;;;;;;;;;;;;;-142.75;100.00;76865.56;5051930;28;19928;-67
2022/10/23 04:36:19;;;;;;;;;;;;;;;-142.75;100.00;76865.56;5051755;28;19982;-66
2022/10/23 04:38:44;;;;;;;;;;;;;;;-142.75;100.00;76869.50;5051555;28;19982;-66
2022/10/23 04:41:09;;;;;;;;;;;;;;;-142.75;100.00;76861.63;5051797;28;19971;-66
2022/10/23 04:43:35;;;;;;;;;;;;;;;-142.75;100.00;76863.59;5051658;28;19952;-65
2022/10/23 04:46:00;;;;;;;;;;;;;;;-142.75;100.00;76873.44;5033712;28;19964;-66
2022/10/23 04:48:25;;;;;;;;;;;;;;;-142.75;100.00;76867.53;5051285;28;19971;-66
2022/10/23 04:50:58;;;;;;;;;;;;;;;-142.75;100.00;76873.44;5051633;28;19964;-66
2022/10/23 04:53:23;;;;;;;;;;;;;;;-142.75;100.00;76873.44;5070647;28;20003;-66
2022/10/23 04:55:52;;;;;;;;;;;;;;;-142.75;100.00;76869.50;5071332;28;20043;-66
2022/10/23 04:58:18;;;;;;;;;;;;;;;-142.75;100.00;76869.50;5071069;28;19920;-66
2022/10/23 05:00:43;;;;;;;;;;;;;;;-142.75;100.00;76861.63;5071212;28;19917;-66
2022/10/23 05:03:08;;;;;;;;;;;;;;;-142.75;100.00;76849.81;5070981;28;20002;-66
2022/10/23 05:05:33;;;;;;;;;;;;;;;-142.75;100.00;76841.94;5071151;28;20031;-66
2022/10/23 05:07:59;;;;;;;;;;;;;;;-142.75;100.00;76851.78;5070797;28;20406;-65
2022/10/23 05:10:24;;;;;;;;;;;;;;;-142.75;100.00;76855.72;5071093;28;19924;-66
2022/10/23 05:12:49;;;;;;;;;;;;;;;-142.75;100.00;76845.88;5070993;28;19936;-66
2022/10/23 05:15:14;;;;;;;;;;;;;;;-142.75;100.00;76839.97;5071381;28;19923;-66
2022/10/23 05:17:42;;;;;;;;;;;;;;;-142.75;100.00;76845.88;5070808;28;20378;-66
2022/10/23 05:20:11;;;;;;;;;;;;;;;-142.75;100.00;76847.84;5070970;28;19929;-66
2022/10/23 05:22:39;;;;;;;;;;;;;;;-142.75;100.00;76847.84;5070777;28;19983;-66
2022/10/23 05:25:04;;;;;;;;;;;;;;;-142.75;100.00;76843.91;5070332;28;19971;-66
2022/10/23 05:27:30;;;;;;;;;;;;;;;-142.75;100.00;76832.09;5070300;28;20069;-66
2022/10/23 05:29:55;;;;;;;;;;;;;;;-142.75;100.00;76822.25;5070690;28;19924;-66
2022/10/23 05:32:21;;;;;;;;;;;;;;;-142.75;100.00;76812.41;5070681;28;19923;-66
2022/10/23 05:34:46;;;;;;;;;;;;;;;-142.75;100.00;76814.38;5070398;28;19959;-66
2022/10/23 05:37:13;;;;;;;;;;;;;;;-142.75;100.00;76828.16;5070276;28;19917;-66
2022/10/23 05:39:38;;;;;;;;;;;;;;;-142.75;100.00;76818.31;5070565;28;19970;-66
2022/10/23 05:42:03;;;;;;;;;;;;;;;-142.75;100.00;76818.31;5070434;28;19924;-66
2022/10/23 05:44:28;;;;;;;;;;;;;;;-142.75;100.00;76806.50;5070109;28;19917;-66
2022/10/23 05:46:53;;;;;;;;;;;;;;;-142.75;100.00;76810.44;5070853;28;19927;-66
2022/10/23 05:49:19;;;;;;;;;;;;;;;-142.75;100.00;76812.41;5070229;28;20003;-66
2022/10/23 05:51:44;;;;;;;;;;;;;;;-142.75;100.00;76806.50;5070004;28;19931;-67
2022/10/23 05:54:09;;;;;;;;;;;;;;;-142.75;100.00;76796.69;5069260;28;19924;-66
2022/10/23 05:56:35;;;;;;;;;;;;;;;-142.75;100.00;76798.66;5068789;28;19987;-66
2022/10/23 05:59:00;;;;;;;;;;;;;;;-142.75;100.00;76790.78;5068904;28;19917;-66
2022/10/23 06:01:26;;;;;;;;;;;;;;;-142.75;100.00;76784.88;5069484;28;19923;-66
2022/10/23 06:03:51;;;;;;;;;;;;;;;-142.75;100.00;76786.84;5098305;22;20354;-65
2022/10/23 06:06:16;;;;;;;;;;;;;;;-142.75;100.00;76782.91;5088273;28;19932;-67
2022/10/23 06:08:41;;;;;;;;;;;;;;;-142.75;100.00;76780.94;5106926;28;19920;-68
2022/10/23 06:11:11;;;;;;;;;;;;;;;-142.75;100.00;76771.09;5108358;28;19915;-67
2022/10/23 06:13:37;;;;;;;;;;;;;;;-142.75;100.00;76767.16;5084765;28;19916;-67
2022/10/23 06:16:08;;;;;;;;;;;;;;;-142.75;100.00;76763.22;5088560;28;19916;-67
2022/10/23 06:18:34;;;;;;;;;;;;;;;-142.75;100.00;76759.28;5089195;28;19916;-67
2022/10/23 06:20:59;;;;;;;;;;;;;;;-142.75;100.00;76765.19;5089630;28;19938;-69
2022/10/23 06:23:24;;;;;;;;;;;;;;;-142.75;100.00;76755.34;5089356;28;20002;-65
2022/10/23 06:25:50;;;;;;;;;;;;;;;-142.75;100.00;76759.28;5089288;28;19916;-67
2022/10/23 06:28:15;;;;;;;;;;;;;;;-142.75;100.00;76759.28;5071067;28;20085;-67
2022/10/23 06:30:40;;;;;;;;;;;;;;;-142.75;100.00;76755.34;5069347;28;20077;-67
2022/10/23 06:33:06;;;;;;;;;;;;;;;-142.75;100.00;76759.28;5069172;28;19916;-67
2022/10/23 06:35:31;;;;;;;;;;;;;;;-142.75;100.00;76743.53;5069270;28;19924;-67
2022/10/23 06:37:56;;;;;;;;;;;;;;;-142.75;100.00;76731.72;5087571;28;20007;-66
2022/10/23 06:40:21;;;;;;;;;;;;;;;-142.75;100.00;76727.78;5089415;28;19916;-68
2022/10/23 06:42:47;;;;;;;;;;;;;;;-142.75;100.00;76733.69;5089200;28;19916;-68
2022/10/23 06:45:12;;;;;;;;;;;;;;;-142.75;100.00;76733.69;5089329;28;19923;-68
2022/10/23 06:47:37;;;;;;;;;;;;;;;-142.75;100.00;76739.59;5088383;28;19943;-67
2022/10/23 06:50:02;;;;;;;;;;;;;;;-142.75;100.00;76745.50;5089158;28;19924;-68
2022/10/23 06:52:30;;;;;;;;;;;;;;;-142.75;100.00;76747.47;5089161;28;19916;-65
2022/10/23 06:54:55;;;;;;;;;;;;;;;-142.75;100.00;76743.53;5088959;28;19916;-67
2022/10/23 06:57:20;;;;;;;;;;;;;;;-142.75;100.00;76755.34;5088675;28;20003;-64
2022/10/23 06:59:45;;;;;;;;;;;;;;;-142.75;100.00;76755.34;5088957;28;19926;-67
2022/10/23 07:02:11;;;;;;;;;;;;;;;-142.75;100.00;76745.50;5089236;28;19976;-66
2022/10/23 07:04:38;;;;;;;;;;;;;;;-142.75;100.00;76733.69;5088672;28;19916;-65
2022/10/23 07:07:05;;;;;;;;;;;;;;;-142.75;100.00;76723.84;5088631;28;19920;-69
2022/10/23 07:09:30;;;;;;;;;;;;;;;-142.75;100.00;76727.78;5079028;28;19916;-67
2022/10/23 07:11:55;;;;;;;;;;;;;;;-142.75;100.00;76723.84;5091230;28;20300;-67
2022/10/23 07:14:20;;;;;;;;;;;;;;;-142.75;100.00;76731.72;5092645;28;19934;-65
2022/10/23 07:16:46;;;;;;;;;;;;;;;-142.75;100.00;76729.75;5092091;28;20301;-67
2022/10/23 07:19:11;;;;;;;;;;;;;;;-142.75;100.00;76727.78;5092910;28;20309;-67
2022/10/23 07:21:36;;;;;;;;;;;;;;;-142.75;100.00;76719.91;5091786;28;19916;-67
2022/10/23 07:24:02;;;;;;;;;;;;;;;-142.75;100.00;76717.94;5092709;28;19916;-66
2022/10/23 07:26:27;;;;;;;;;;;;;;;-142.75;100.00;76715.97;5092522;28;20002;-67
2022/10/23 07:28:54;;;;;;;;;;;;;;;-142.75;100.00;76704.16;5092203;28;19924;-65
2022/10/23 07:31:22;;;;;;;;;;;;;;;-142.75;100.00;76708.09;5085826;28;19923;-67
2022/10/23 07:33:48;;;;;;;;;;;;;;;-142.75;100.00;76696.28;5072243;28;19923;-67
2022/10/23 07:36:13;;;;;;;;;;;;;;;-142.75;100.00;76692.34;5070668;28;19916;-68
2022/10/23 07:38:38;;;;;;;;;;;;;;;-142.75;100.00;76684.47;5071981;28;19939;-67
2022/10/23 07:41:04;;;;;;;;;;;;;;;-142.75;100.00;76686.44;5072138;28;19962;-67
2022/10/23 07:43:32;;;;;;;;;;;;;;;-142.75;100.00;76682.50;5072111;28;19916;-67
2022/10/23 07:45:57;;;;;;;;;;;;;;;-142.75;100.00;76682.50;5079839;28;20065;-67
2022/10/23 07:48:22;;;;;;;;;;;;;;;-142.75;100.00;76678.56;5091962;28;20373;-66
2022/10/23 07:50:48;;;;;;;;;;;;;;;-142.75;100.00;76664.78;5089193;28;19916;-67
2022/10/23 07:53:16;;;;;;;;;;;;;;;-142.75;100.00;76660.84;5072081;28;19920;-68
2022/10/23 07:55:41;;;;;;;;;;;;;;;-142.75;100.00;76668.72;5070651;28;19931;-67
2022/10/23 07:58:07;;;;;;;;;;;;;;;-142.75;100.00;76651.00;5069585;28;19920;-67
2022/10/23 08:00:32;;;;;;;;;;;;;;;-142.75;100.00;76649.03;5071596;28;19924;-64
2022/10/23 08:02:57;;;;;;;;;;;;;;;-142.75;100.00;76649.03;5085517;28;19966;-67
2022/10/23 08:05:22;;;;;;;;;;;;;;;-142.75;100.00;76647.06;5070626;28;19916;-65
2022/10/23 08:07:47;;;;;;;;;;;;;;;-142.75;100.00;76641.16;5070213;28;19920;-65
2022/10/23 08:10:12;;;;;;;;;;;;;;;-142.75;100.00;76643.13;5070476;28;19968;-66
2022/10/23 08:12:38;;;;;;;;;;;;;;;-142.75;100.00;76629.34;5076474;28;19916;-66
2022/10/23 08:15:03;;;;;;;;;;;;;;;-142.75;100.00;76621.47;5070470;28;20615;-68
2022/10/23 08:17:28;;;;;;;;;;;;;;;-142.75;100.00;76627.38;5070630;28;19916;-66
2022/10/23 08:19:53;;;;;;;;;;;;;;;-142.75;100.00;76627.38;5069456;28;19916;-65
2022/10/23 08:22:19;;;;;;;;;;;;;;;-142.75;100.00;76619.50;5070619;28;19964;-65
2022/10/23 08:24:44;;;;;;;;;;;;;;;-142.75;100.00;76609.66;5070188;28;19916;-65
2022/10/23 08:27:09;;;;;;;;;;;;;;;-142.75;100.00;76601.78;5069873;28;19917;-66
2022/10/23 08:29:34;;;;;;;;;;;;;;;-142.75;100.00;76593.91;5070372;28;20459;-69
2022/10/23 08:32:02;;;;;;;;;;;;;;;-142.75;100.00;76582.09;5090441;28;19920;-67
2022/10/23 08:34:27;;;;;;;;;;;;;;;-142.75;100.00;76582.09;5090228;28;19939;-66
2022/10/23 08:36:52;;;;;;;;;;;;;;;-142.75;100.00;76574.22;5089840;28;20370;-66
2022/10/23 08:39:17;;;;;;;;;;;;;;;-142.75;100.00;76566.34;5089542;28;20374;-64
2022/10/23 08:41:48;;;;;;;;;;;;;;;-142.75;100.00;76560.44;5089828;28;20420;-66
2022/10/23 08:44:29;;;;;;;;;;;;;;;-142.75;100.00;76558.47;5089743;28;19920;-65
2022/10/23 08:47:01;;;;;;;;;;;;;;;-142.75;100.00;76546.66;5090681;28;19920;-68
2022/10/23 08:49:29;;;;;;;;;;;;;;;-142.75;100.00;76536.84;5090981;28;19924;-66
2022/10/23 08:51:56;;;;;;;;;;;;;;;-142.75;100.00;76540.75;5091507;28;19923;-65
2022/10/23 08:54:37;;;;;;;;;;;;;;;-142.75;100.00;76530.91;5089570;28;19916;-66
2022/10/23 08:57:08;;;;;;;;;;;;;;;-142.75;100.00;76523.06;5090698;28;19916;-65
2022/10/23 08:59:39;;;;;;;;;;;;;;;-142.75;100.00;76515.19;5089755;28;19919;-66
2022/10/23 09:02:20;;;;;;;;;;;;;;;-142.75;100.00;76517.16;5090784;28;19945;-67
2022/10/23 09:04:46;;;;;;;;;;;;;;;-142.75;100.00;76507.31;5090744;28;19916;-67
2022/10/23 09:07:12;;;;;;;;;;;;;;;-142.75;100.00;76507.31;5090407;28;20405;-67
2022/10/23 09:09:49;;;;;;;;;;;;;;;-142.75;100.00;76503.38;5088870;28;20005;-66
2022/10/23 09:12:20;;;;;;;;;;;;;;;-142.75;100.00;76499.44;5079656;28;19924;-66
2022/10/23 09:14:53;;;;;;;;;;;;;;;-142.75;100.00;76483.69;5077081;28;19916;-65
2022/10/23 09:17:18;;;;;;;;;;;;;;;-142.75;100.00;76483.69;5078941;28;19916;-67
2022/10/23 09:19:44;;;;;;;;;;;;;;;-142.75;100.00;76475.81;5076892;28;20412;-65
2022/10/23 09:22:10;;;;;;;;;;;;;;;-142.75;100.00;76479.75;5079466;28;19924;-67
2022/10/23 09:24:35;;;;;;;;;;;;;;;-142.75;100.00;76465.97;5080437;28;19927;-67
2022/10/23 09:27:00;;;;;;;;;;;;;;;-142.75;100.00;76467.94;5079747;28;19929;-67
2022/10/23 09:29:31;;;;;;;;;;;;;;;-142.75;100.00;76464.00;5078752;28;20051;-70
2022/10/23 09:32:04;;;;;;;;;;;;;;;-142.75;100.00;76452.19;5079311;28;20382;-66
2022/10/23 09:34:30;;;;;;;;;;;;;;;-142.75;100.00;76456.13;5078164;28;19955;-66
2022/10/23 09:36:57;;;;;;;;;;;;;;;-142.75;100.00;76446.28;5078685;28;20195;-66
2022/10/23 09:39:25;;;;;;;;;;;;;;;-142.75;100.00;76440.38;5102785;28;19923;-65
2022/10/23 09:41:50;;;;;;;;;;;;;;;-142.75;100.00;76432.50;5089552;28;20378;-69
2022/10/23 09:44:26;;;;;;;;;;;;;;;-142.75;100.00;76416.75;5088745;28;19926;-67
2022/10/23 09:46:57;;;;;;;;;;;;;;;-142.75;100.00;76420.69;5089512;28;19916;-66
2022/10/23 09:49:24;;;;;;;;;;;;;;;-142.75;100.00;76428.56;5090212;28;20376;-68
2022/10/23 09:52:12;;;;;;;;;;;;;;;-142.75;100.00;76432.50;5090976;28;20439;-68
2022/10/23 09:54:43;;;;;;;;;;;;;;;-142.75;100.00;76418.72;5071139;28;19967;-67
2022/10/23 09:57:15;;;;;;;;;;;;;;;-142.75;100.00;76410.84;5089692;28;19916;-68
2022/10/23 09:59:40;;;;;;;;;;;;;;;-142.75;100.00;76412.81;5091137;28;19927;-67
2022/10/23 10:02:35;;;;;;;;;;;;;;;-142.75;100.00;76406.91;5089954;28;19923;-69
2022/10/23 10:05:19;;;;;;;;;;;;;;;-142.75;100.00;76397.06;5080946;28;20318;-67
2022/10/23 10:07:52;;;;;;;;;;;;;;;-142.75;100.00;76387.22;5090710;28;19927;-67
2022/10/23 10:10:17;;;;;;;;;;;;;;;-142.75;100.00;76371.47;5090552;28;19923;-67
2022/10/23 10:12:53;;;;;;;;;;;;;;;-142.75;100.00;76369.50;5090948;28;20317;-67
2022/10/23 10:15:23;;;;;;;;;;;;;;;-142.75;100.00;76357.69;5089440;28;20465;-68
2022/10/23 10:17:54;;;;;;;;;;;;;;;-142.75;100.00;76345.91;5090773;28;19916;-67
2022/10/23 10:20:29;;;;;;;;;;;;;;;-142.75;100.00;76343.94;5086959;28;19921;-68
2022/10/23 10:23:09;;;;;;;;;;;;;;;-142.75;100.00;76332.13;5090958;28;19919;-67
2022/10/23 10:25:43;;;;;;;;;;;;;;;-142.75;100.00;76314.41;5090803;28;19916;-67
2022/10/23 10:28:18;;;;;;;;;;;;;;;-142.75;100.00;76306.53;5090470;28;19924;-68
2022/10/23 10:30:59;;;;;;;;;;;;;;;-142.75;100.00;76306.53;5089623;28;19939;-69
2022/10/23 10:33:33;;;;;;;;;;;;;;;-142.75;100.00;76298.66;5070445;28;20007;-68
2022/10/23 10:36:01;;;;;;;;;;;;;;;-142.75;100.00;76275.03;5089432;28;19916;-68
2022/10/23 10:38:29;;;;;;;;;;;;;;;-142.75;100.00;76263.22;5089316;28;19973;-66
2022/10/23 10:40:57;;;;;;;;;;;;;;;-142.75;100.00;76257.31;5077179;28;19917;-68
2022/10/23 10:43:31;;;;;;;;;;;;;;;-142.75;100.00;76233.69;5077378;28;19916;-68
2022/10/23 10:45:59;;;;;;;;;;;;;;;-142.75;100.00;76231.72;5088194;28;19920;-67
2022/10/23 10:48:33;;;;;;;;;;;;;;;-142.75;100.00;76212.03;5088585;28;19928;-68
2022/10/23 10:51:01;;;;;;;;;;;;;;;-142.75;100.00;76210.06;5089848;28;20448;-67
2022/10/23 10:53:44;;;;;;;;;;;;;;;-142.75;100.00;76206.13;5090551;28;20011;-66
2022/10/23 10:56:14;;;;;;;;;;;;;;;-142.75;100.00;76196.31;5089726;28;19916;-66
2022/10/23 10:58:45;;;;;;;;;;;;;;;-142.75;100.00;76182.53;5088613;28;19920;-67
2022/10/23 11:01:18;;;;;;;;;;;;;;;-142.75;100.00;76178.59;5082215;28;20398;-67
2022/10/23 11:03:54;;;;;;;;;;;;;;;-142.75;100.00;76168.75;5078985;28;19995;-68
2022/10/23 11:06:21;;;;;;;;;;;;;;;-142.75;100.00;76164.81;5078130;28;19925;-69
2022/10/23 11:08:47;;;;;;;;;;;;;;;-142.75;100.00;76154.97;5078531;28;19920;-67
2022/10/23 11:11:12;;;;;;;;;;;;;;;-142.75;100.00;76131.34;5076124;28;19916;-68
2022/10/23 11:13:39;;;;;;;;;;;;;;;-142.75;100.00;76117.56;5073749;28;19916;-67
2022/10/23 11:16:24;;;;;;;;;;;;;;;-142.75;100.00;76097.88;5082573;28;20301;-67
2022/10/23 11:19:00;;;;;;;;;;;;;;;-142.75;100.00;76093.94;5074116;28;19917;-67
2022/10/23 11:21:28;;;;;;;;;;;;;;;-142.75;100.00;76082.13;5086912;28;19932;-67
2022/10/23 11:24:02;;;;;;;;;;;;;;;-142.75;100.00;76066.41;5079540;28;20306;-67
2022/10/23 11:26:42;;;;;;;;;;;;;;;-142.75;100.00;76050.66;5086847;28;19924;-68
2022/10/23 11:29:17;;;;;;;;;;;;;;;-142.75;100.00;76036.88;5088250;28;19928;-67
2022/10/23 11:31:48;;;;;;;;;;;;;;;-142.75;100.00;76025.06;5084236;28;20279;-66
2022/10/23 11:34:20;;;;;;;;;;;;;;;-142.75;100.00;76011.28;5086138;28;20331;-67
2022/10/23 11:36:56;;;;;;;;;;;;;;;-142.75;100.00;76011.28;5086259;28;19924;-69
2022/10/23 11:39:21;;;;;;;;;;;;;;;-142.75;100.00;76019.16;5088229;28;19977;-65
2022/10/23 11:41:49;;;;;;;;;;;;;;;-142.75;100.00;76013.25;5086863;28;19916;-67
2022/10/23 11:44:37;;;;;;;;;;;;;;;-142.75;100.00;76001.44;5088003;28;19923;-67
2022/10/23 11:47:20;;;;;;;;;;;;;;;-142.75;100.00;75999.47;5087585;28;20019;-67
2022/10/23 11:49:46;;;;;;;;;;;;;;;-142.75;100.00;75983.72;5086572;28;19928;-67
2022/10/23 11:52:21;;;;;;;;;;;;;;;-142.75;100.00;75966.00;5088733;28;20282;-69
2022/10/23 11:54:46;;;;;;;;;;;;;;;-142.75;100.00;75966.00;5082761;28;19927;-67
2022/10/23 11:57:13;;;;;;;;;;;;;;;-142.75;100.00;75952.25;5070003;28;20392;-68
2022/10/23 11:59:41;;;;;;;;;;;;;;;-142.75;100.00;75944.38;5088851;28;19920;-66
2022/10/23 12:02:26;;;;;;;;;;;;;;;-142.75;100.00;75944.38;5090009;28;19927;-67
2022/10/23 12:04:52;;;;;;;;;;;;;;;-142.75;100.00;75928.63;5101134;22;20024;-66
2022/10/23 12:07:17;;;;;;;;;;;;;;;-142.75;100.00;75920.75;5069187;28;19921;-66
2022/10/23 12:09:50;;;;;;;;;;;;;;;-142.75;100.00;75912.88;5071408;28;20005;-65
2022/10/23 12:12:25;;;;;;;;;;;;;;;-142.75;100.00;75897.13;5071009;28;19916;-66
2022/10/23 12:14:50;;;;;;;;;;;;;;;-142.75;100.00;75871.53;5080000;28;19935;-64
2022/10/23 12:17:21;;;;;;;;;;;;;;;-142.75;100.00;75877.44;5073429;28;19942;-68
2022/10/23 12:19:48;;;;;;;;;;;;;;;-142.75;100.00;75883.34;5071511;28;19920;-65
2022/10/23 12:22:13;;;;;;;;;;;;;;;-142.75;100.00;75869.56;5073020;28;19985;-65
2022/10/23 12:25:07;;;;;;;;;;;;;;;-142.75;100.00;75863.66;5071301;28;19928;-65